sensor_id;sensor_type;location;lat;lon;timestamp;pressure;altitude;pressure_sealevel;temperature;humidity
4024;BME280;2026;51.002;13.668;2023-02-15T00:03:20;100531.81;;;-0.55;90.21
4024;BME280;2026;51.002;13.668;2023-02-15T00:08:23;100534.63;;;-0.58;91.00
4024;BME280;2026;51.002;13.668;2023-02-15T00:13:27;100533.59;;;-0.56;90.76
4024;BME280;2026;51.002;13.668;2023-02-15T00:18:30;100526.97;;;-0.73;91.61
4024;BME280;2026;51.002;13.668;2023-02-15T00:23:33;100519.88;;;-0.56;91.27
4024;BME280;2026;51.002;13.668;2023-02-15T00:28:38;100529.75;;;-0.76;91.41
4024;BME280;2026;51.002;13.668;2023-02-15T00:33:41;100527.16;;;-0.76;91.32
4024;BME280;2026;51.002;13.668;2023-02-15T00:38:44;100525.03;;;-0.69;90.30
4024;BME280;2026;51.002;13.668;2023-02-15T00:43:48;100513.06;;;-0.70;88.96
4024;BME280;2026;51.002;13.668;2023-02-15T00:48:51;100505.22;;;-0.82;88.65
4024;BME280;2026;51.002;13.668;2023-02-15T00:53:54;100504.41;;;-0.95;88.95
4024;BME280;2026;51.002;13.668;2023-02-15T00:58:58;100507.03;;;-1.10;89.50
4024;BME280;2026;51.002;13.668;2023-02-15T01:04:02;100504.50;;;-0.97;89.07
4024;BME280;2026;51.002;13.668;2023-02-15T01:09:05;100493.34;;;-0.97;88.71
4024;BME280;2026;51.002;13.668;2023-02-15T01:14:09;100490.38;;;-1.04;88.79
4024;BME280;2026;51.002;13.668;2023-02-15T01:19:12;100485.84;;;-1.00;88.56
4024;BME280;2026;51.002;13.668;2023-02-15T01:24:16;100488.91;;;-1.08;88.19
4024;BME280;2026;51.002;13.668;2023-02-15T01:29:21;100485.81;;;-1.13;88.78
4024;BME280;2026;51.002;13.668;2023-02-15T01:34:24;100484.81;;;-1.11;88.18
4024;BME280;2026;51.002;13.668;2023-02-15T01:39:26;100483.75;;;-1.21;88.17
4024;BME280;2026;51.002;13.668;2023-02-15T01:44:49;100475.31;;;-1.23;88.38
4024;BME280;2026;51.002;13.668;2023-02-15T01:50:03;100460.97;;;-1.27;87.91
4024;BME280;2026;51.002;13.668;2023-02-15T01:55:08;100452.97;;;-1.23;88.15
4024;BME280;2026;51.002;13.668;2023-02-15T02:00:14;100441.09;;;-1.38;88.62
4024;BME280;2026;51.002;13.668;2023-02-15T02:05:21;100436.78;;;-1.38;89.32
4024;BME280;2026;51.002;13.668;2023-02-15T02:10:25;100436.16;;;-1.28;88.53
4024;BME280;2026;51.002;13.668;2023-02-15T02:15:41;100429.19;;;-1.26;89.42
4024;BME280;2026;51.002;13.668;2023-02-15T02:21:08;100417.03;;;-1.37;88.74
4024;BME280;2026;51.002;13.668;2023-02-15T02:26:54;100423.38;;;-1.43;89.93
4024;BME280;2026;51.002;13.668;2023-02-15T02:32:28;100424.59;;;-1.49;88.38
4024;BME280;2026;51.002;13.668;2023-02-15T02:37:47;100417.28;;;-1.55;89.11
4024;BME280;2026;51.002;13.668;2023-02-15T02:42:56;100415.75;;;-1.57;88.70
4024;BME280;2026;51.002;13.668;2023-02-15T02:48:04;100410.19;;;-1.51;88.53
4024;BME280;2026;51.002;13.668;2023-02-15T02:53:10;100411.03;;;-1.51;89.03
4024;BME280;2026;51.002;13.668;2023-02-15T02:58:16;100407.28;;;-1.59;88.21
4024;BME280;2026;51.002;13.668;2023-02-15T03:03:24;100400.72;;;-1.51;88.03
4024;BME280;2026;51.002;13.668;2023-02-15T03:08:34;100397.69;;;-1.70;88.37
4024;BME280;2026;51.002;13.668;2023-02-15T03:13:39;100401.78;;;-1.81;88.97
4024;BME280;2026;51.002;13.668;2023-02-15T03:18:46;100402.28;;;-1.88;88.68
4024;BME280;2026;51.002;13.668;2023-02-15T03:24:00;100403.03;;;-1.73;88.24
4024;BME280;2026;51.002;13.668;2023-02-15T03:29:07;100402.31;;;-1.76;87.78
4024;BME280;2026;51.002;13.668;2023-02-15T03:34:12;100391.78;;;-1.85;88.32
4024;BME280;2026;51.002;13.668;2023-02-15T03:39:20;100403.03;;;-2.01;90.23
4024;BME280;2026;51.002;13.668;2023-02-15T03:44:29;100408.19;;;-2.01;89.68
4024;BME280;2026;51.002;13.668;2023-02-15T03:49:38;100408.25;;;-2.03;89.41
4024;BME280;2026;51.002;13.668;2023-02-15T03:54:44;100403.63;;;-2.10;89.50
4024;BME280;2026;51.002;13.668;2023-02-15T03:59:48;100402.66;;;-1.95;88.33
4024;BME280;2026;51.002;13.668;2023-02-15T04:05:28;100403.41;;;-2.07;89.32
4024;BME280;2026;51.002;13.668;2023-02-15T04:10:32;100398.81;;;-2.02;88.91
4024;BME280;2026;51.002;13.668;2023-02-15T04:15:54;100400.41;;;-2.14;89.48
4024;BME280;2026;51.002;13.668;2023-02-15T04:21:09;100398.09;;;-2.04;88.52
4024;BME280;2026;51.002;13.668;2023-02-15T04:26:31;100390.44;;;-2.19;89.60
4024;BME280;2026;51.002;13.668;2023-02-15T04:31:34;100391.56;;;-2.10;87.82
4024;BME280;2026;51.002;13.668;2023-02-15T04:36:38;100393.34;;;-2.10;88.40
4024;BME280;2026;51.002;13.668;2023-02-15T04:41:42;100389.22;;;-2.13;87.94
4024;BME280;2026;51.002;13.668;2023-02-15T04:46:45;100392.00;;;-2.31;88.80
4024;BME280;2026;51.002;13.668;2023-02-15T04:51:48;100378.69;;;-2.37;89.07
4024;BME280;2026;51.002;13.668;2023-02-15T04:56:53;100375.75;;;-2.31;89.68
4024;BME280;2026;51.002;13.668;2023-02-15T05:01:55;100367.72;;;-2.39;89.66
4024;BME280;2026;51.002;13.668;2023-02-15T05:06:58;100364.75;;;-2.33;88.49
4024;BME280;2026;51.002;13.668;2023-02-15T05:12:03;100358.63;;;-2.31;89.03
4024;BME280;2026;51.002;13.668;2023-02-15T05:17:06;100364.69;;;-2.32;88.66
4024;BME280;2026;51.002;13.668;2023-02-15T05:22:09;100351.28;;;-2.37;88.65
4024;BME280;2026;51.002;13.668;2023-02-15T05:27:14;100351.03;;;-2.47;89.72
4024;BME280;2026;51.002;13.668;2023-02-15T05:32:34;100349.34;;;-2.33;89.14
4024;BME280;2026;51.002;13.668;2023-02-15T05:37:37;100356.06;;;-2.45;88.55
4024;BME280;2026;51.002;13.668;2023-02-15T05:42:41;100352.66;;;-2.46;89.37
4024;BME280;2026;51.002;13.668;2023-02-15T05:47:45;100355.25;;;-2.46;89.53
4024;BME280;2026;51.002;13.668;2023-02-15T05:52:48;100359.00;;;-2.37;89.16
4024;BME280;2026;51.002;13.668;2023-02-15T05:57:54;100358.03;;;-2.63;88.87
4024;BME280;2026;51.002;13.668;2023-02-15T06:02:57;100356.72;;;-2.56;89.49
4024;BME280;2026;51.002;13.668;2023-02-15T06:08:00;100359.66;;;-2.48;88.99
4024;BME280;2026;51.002;13.668;2023-02-15T06:13:09;100358.72;;;-2.47;89.51
4024;BME280;2026;51.002;13.668;2023-02-15T06:18:13;100357.66;;;-2.57;89.76
4024;BME280;2026;51.002;13.668;2023-02-15T06:23:16;100360.78;;;-2.66;89.61
4024;BME280;2026;51.002;13.668;2023-02-15T06:28:20;100358.00;;;-2.49;90.37
4024;BME280;2026;51.002;13.668;2023-02-15T06:33:23;100344.25;;;-2.48;88.96
4024;BME280;2026;51.002;13.668;2023-02-15T06:38:26;100343.53;;;-2.64;89.46
4024;BME280;2026;51.002;13.668;2023-02-15T06:43:30;100350.84;;;-2.43;89.06
4024;BME280;2026;51.002;13.668;2023-02-15T06:48:33;100345.13;;;-2.34;89.01
4024;BME280;2026;51.002;13.668;2023-02-15T06:53:36;100342.19;;;-2.28;88.67
4024;BME280;2026;51.002;13.668;2023-02-15T06:58:41;100344.94;;;-2.31;89.15
4024;BME280;2026;51.002;13.668;2023-02-15T07:03:44;100331.63;;;-2.23;88.73
4024;BME280;2026;51.002;13.668;2023-02-15T07:08:47;100335.53;;;-1.90;88.75
4024;BME280;2026;51.002;13.668;2023-02-15T07:13:52;100330.47;;;-1.25;86.60
4024;BME280;2026;51.002;13.668;2023-02-15T07:18:55;100336.06;;;-0.68;85.31
4024;BME280;2026;51.002;13.668;2023-02-15T07:23:58;100320.69;;;-0.32;83.81
4024;BME280;2026;51.002;13.668;2023-02-15T07:29:02;100314.06;;;0.01;83.14
4024;BME280;2026;51.002;13.668;2023-02-15T07:34:06;100315.41;;;0.29;82.55
4024;BME280;2026;51.002;13.668;2023-02-15T07:39:09;100303.97;;;0.45;83.25
4024;BME280;2026;51.002;13.668;2023-02-15T07:44:14;100296.50;;;0.65;83.74
4024;BME280;2026;51.002;13.668;2023-02-15T07:49:17;100294.97;;;1.08;82.63
4024;BME280;2026;51.002;13.668;2023-02-15T07:54:20;100293.88;;;1.33;82.63
4024;BME280;2026;51.002;13.668;2023-02-15T07:59:24;100284.56;;;1.53;83.32
4024;BME280;2026;51.002;13.668;2023-02-15T08:04:28;100279.88;;;1.80;82.66
4024;BME280;2026;51.002;13.668;2023-02-15T08:57:05;100243.66;;;3.55;82.75
4024;BME280;2026;51.002;13.668;2023-02-15T09:02:09;100242.78;;;4.24;81.98
4024;BME280;2026;51.002;13.668;2023-02-15T09:07:12;100240.41;;;4.40;80.86
4024;BME280;2026;51.002;13.668;2023-02-15T09:12:17;100243.25;;;4.85;81.00
4024;BME280;2026;51.002;13.668;2023-02-15T09:17:20;100235.28;;;4.68;80.53
4024;BME280;2026;51.002;13.668;2023-02-15T09:22:23;100235.91;;;4.80;79.08
4024;BME280;2026;51.002;13.668;2023-02-15T09:27:27;100231.09;;;5.04;79.05
4024;BME280;2026;51.002;13.668;2023-02-15T09:32:30;100235.66;;;5.56;79.81
4024;BME280;2026;51.002;13.668;2023-02-15T09:37:33;100232.47;;;5.44;77.39
4024;BME280;2026;51.002;13.668;2023-02-15T09:48:26;100227.66;;;6.47;73.98
4024;BME280;2026;51.002;13.668;2023-02-15T09:53:51;100226.53;;;6.49;74.84
4024;BME280;2026;51.002;13.668;2023-02-15T09:59:04;100226.09;;;6.62;73.81
4024;BME280;2026;51.002;13.668;2023-02-15T10:04:29;100215.88;;;6.69;73.08
4024;BME280;2026;51.002;13.668;2023-02-15T10:09:53;100213.69;;;6.48;73.14
4024;BME280;2026;51.002;13.668;2023-02-15T10:15:19;100207.59;;;6.74;73.66
4024;BME280;2026;51.002;13.668;2023-02-15T10:20:30;100197.22;;;6.90;72.15
4024;BME280;2026;51.002;13.668;2023-02-15T10:25:42;100195.22;;;6.76;72.04
4024;BME280;2026;51.002;13.668;2023-02-15T10:30:48;100196.00;;;7.11;72.77
4024;BME280;2026;51.002;13.668;2023-02-15T10:36:02;100176.63;;;7.47;72.04
4024;BME280;2026;51.002;13.668;2023-02-15T10:41:19;100166.84;;;7.49;71.53
4024;BME280;2026;51.002;13.668;2023-02-15T10:46:40;100161.44;;;7.67;70.92
4024;BME280;2026;51.002;13.668;2023-02-15T10:51:56;100155.25;;;7.60;70.98
4024;BME280;2026;51.002;13.668;2023-02-15T10:57:04;100153.94;;;7.72;70.82
4024;BME280;2026;51.002;13.668;2023-02-15T11:02:19;100149.38;;;7.66;71.18
4024;BME280;2026;51.002;13.668;2023-02-15T11:07:26;100144.94;;;7.75;70.96
4024;BME280;2026;51.002;13.668;2023-02-15T11:12:32;100134.25;;;8.10;70.96
4024;BME280;2026;51.002;13.668;2023-02-15T11:17:39;100136.84;;;8.18;69.79
4024;BME280;2026;51.002;13.668;2023-02-15T11:22:47;100131.47;;;8.11;71.60
4024;BME280;2026;51.002;13.668;2023-02-15T11:27:51;100124.41;;;8.29;70.51
4024;BME280;2026;51.002;13.668;2023-02-15T11:32:58;100123.25;;;8.31;71.80
4024;BME280;2026;51.002;13.668;2023-02-15T11:38:12;100119.63;;;8.40;70.66
4024;BME280;2026;51.002;13.668;2023-02-15T11:43:24;100109.88;;;8.58;70.30
4024;BME280;2026;51.002;13.668;2023-02-15T11:48:31;100110.16;;;8.39;70.77
4024;BME280;2026;51.002;13.668;2023-02-15T11:53:36;100106.22;;;8.35;71.24
4024;BME280;2026;51.002;13.668;2023-02-15T11:58:43;100101.47;;;8.07;71.29
4024;BME280;2026;51.002;13.668;2023-02-15T12:03:50;100099.03;;;7.97;71.41
4024;BME280;2026;51.002;13.668;2023-02-15T12:09:00;100100.22;;;8.35;70.03
4024;BME280;2026;51.002;13.668;2023-02-15T12:14:06;100092.91;;;8.53;68.51
4024;BME280;2026;51.002;13.668;2023-02-15T12:19:29;100092.22;;;8.60;69.77
4024;BME280;2026;51.002;13.668;2023-02-15T12:24:37;100073.53;;;8.08;70.07
4024;BME280;2026;51.002;13.668;2023-02-15T12:29:42;100074.19;;;8.41;69.88
4024;BME280;2026;51.002;13.668;2023-02-15T12:34:48;100063.28;;;8.61;68.54
4024;BME280;2026;51.002;13.668;2023-02-15T12:39:55;100061.13;;;8.65;67.87
4024;BME280;2026;51.002;13.668;2023-02-15T12:45:00;100040.88;;;8.67;68.61
4024;BME280;2026;51.002;13.668;2023-02-15T12:50:14;100041.47;;;8.77;68.74
4024;BME280;2026;51.002;13.668;2023-02-15T12:55:23;100034.78;;;8.51;68.48
4024;BME280;2026;51.002;13.668;2023-02-15T13:00:29;100036.91;;;8.71;68.66
4024;BME280;2026;51.002;13.668;2023-02-15T13:05:39;100037.50;;;8.58;68.36
4024;BME280;2026;51.002;13.668;2023-02-15T13:10:54;100027.63;;;8.92;68.02
4024;BME280;2026;51.002;13.668;2023-02-15T13:15:59;100032.09;;;8.83;67.03
4024;BME280;2026;51.002;13.668;2023-02-15T13:21:10;100030.31;;;8.84;67.54
4024;BME280;2026;51.002;13.668;2023-02-15T13:26:31;100030.47;;;8.82;67.45
4024;BME280;2026;51.002;13.668;2023-02-15T13:31:35;100040.75;;;8.84;67.34
4024;BME280;2026;51.002;13.668;2023-02-15T13:36:47;100031.00;;;8.77;68.41
4024;BME280;2026;51.002;13.668;2023-02-15T13:41:58;100029.56;;;8.51;68.98
4024;BME280;2026;51.002;13.668;2023-02-15T13:47:13;100031.16;;;8.76;68.42
4024;BME280;2026;51.002;13.668;2023-02-15T13:52:22;100046.44;;;8.64;68.01
4024;BME280;2026;51.002;13.668;2023-02-15T14:03:25;100054.63;;;8.06;69.18
4024;BME280;2026;51.002;13.668;2023-02-15T14:08:45;100049.78;;;8.26;67.92
4024;BME280;2026;51.002;13.668;2023-02-15T14:14:10;100048.69;;;8.20;69.38
4024;BME280;2026;51.002;13.668;2023-02-15T14:19:25;100033.00;;;8.20;68.23
4024;BME280;2026;51.002;13.668;2023-02-15T14:24:37;100033.53;;;8.16;68.38
4024;BME280;2026;51.002;13.668;2023-02-15T14:29:48;100034.31;;;8.16;68.64
4024;BME280;2026;51.002;13.668;2023-02-15T14:34:55;100032.69;;;8.15;68.77
4024;BME280;2026;51.002;13.668;2023-02-15T14:40:03;100035.81;;;8.10;68.62
4024;BME280;2026;51.002;13.668;2023-02-15T14:45:29;100037.63;;;8.02;69.18
4024;BME280;2026;51.002;13.668;2023-02-15T14:50:41;100034.78;;;7.80;69.80
4024;BME280;2026;51.002;13.668;2023-02-15T14:55:47;100028.97;;;7.69;69.64
4024;BME280;2026;51.002;13.668;2023-02-15T15:00:50;100041.09;;;7.37;70.86
4024;BME280;2026;51.002;13.668;2023-02-15T15:05:55;100044.53;;;6.96;71.87
4024;BME280;2026;51.002;13.668;2023-02-15T15:11:39;100040.78;;;6.90;72.41
4024;BME280;2026;51.002;13.668;2023-02-15T15:16:50;100040.16;;;6.88;73.00
4024;BME280;2026;51.002;13.668;2023-02-15T15:21:54;100041.38;;;6.34;75.15
4024;BME280;2026;51.002;13.668;2023-02-15T15:32:35;100033.91;;;6.40;74.44
4024;BME280;2026;51.002;13.668;2023-02-15T15:38:07;100023.13;;;6.26;75.31
4024;BME280;2026;51.002;13.668;2023-02-15T15:43:38;100008.75;;;6.14;75.97
4024;BME280;2026;51.002;13.668;2023-02-15T15:48:45;100024.81;;;5.58;77.17
4024;BME280;2026;51.002;13.668;2023-02-15T15:53:50;100018.06;;;5.47;77.35
4024;BME280;2026;51.002;13.668;2023-02-15T15:58:58;100024.59;;;5.77;76.28
4024;BME280;2026;51.002;13.668;2023-02-15T16:04:04;100020.97;;;5.70;75.83
4024;BME280;2026;51.002;13.668;2023-02-15T16:09:12;100016.09;;;5.41;76.24
4024;BME280;2026;51.002;13.668;2023-02-15T16:14:19;100019.44;;;5.06;77.58
4024;BME280;2026;51.002;13.668;2023-02-15T16:19:27;100015.09;;;4.89;78.82
4024;BME280;2026;51.002;13.668;2023-02-15T16:30:17;100003.41;;;4.48;79.54
4024;BME280;2026;51.002;13.668;2023-02-15T16:35:23;100003.88;;;4.15;80.00
4024;BME280;2026;51.002;13.668;2023-02-15T16:40:38;100014.06;;;3.99;81.15
4024;BME280;2026;51.002;13.668;2023-02-15T16:45:43;100009.91;;;3.88;80.85
4024;BME280;2026;51.002;13.668;2023-02-15T16:50:51;100010.03;;;3.58;82.23
4024;BME280;2026;51.002;13.668;2023-02-15T16:55:55;100010.38;;;3.73;81.53
4024;BME280;2026;51.002;13.668;2023-02-15T17:01:01;100004.41;;;3.63;81.82
4024;BME280;2026;51.002;13.668;2023-02-15T17:06:19;99995.41;;;3.57;82.18
4024;BME280;2026;51.002;13.668;2023-02-15T17:11:33;99993.22;;;3.53;82.27
4024;BME280;2026;51.002;13.668;2023-02-15T17:16:41;99997.41;;;3.36;83.30
4024;BME280;2026;51.002;13.668;2023-02-15T17:21:51;100003.81;;;3.31;83.12
4024;BME280;2026;51.002;13.668;2023-02-15T17:26:55;100007.25;;;3.22;82.55
4024;BME280;2026;51.002;13.668;2023-02-15T17:32:02;100002.63;;;3.06;83.51
4024;BME280;2026;51.002;13.668;2023-02-15T17:37:12;100004.00;;;3.20;82.06
4024;BME280;2026;51.002;13.668;2023-02-15T17:42:15;100009.19;;;3.00;82.20
4024;BME280;2026;51.002;13.668;2023-02-15T17:47:20;100001.84;;;2.86;83.06
4024;BME280;2026;51.002;13.668;2023-02-15T17:52:28;100003.63;;;2.75;83.59
4024;BME280;2026;51.002;13.668;2023-02-15T17:57:32;100000.75;;;2.39;84.43
4024;BME280;2026;51.002;13.668;2023-02-15T18:02:35;99994.47;;;2.42;84.61
4024;BME280;2026;51.002;13.668;2023-02-15T18:07:57;99993.13;;;2.47;84.74
4024;BME280;2026;51.002;13.668;2023-02-15T18:13:19;99997.19;;;2.40;84.05
4024;BME280;2026;51.002;13.668;2023-02-15T18:18:22;99997.47;;;2.37;84.00
4024;BME280;2026;51.002;13.668;2023-02-15T18:23:27;100000.28;;;2.14;85.00
4024;BME280;2026;51.002;13.668;2023-02-15T18:28:30;99997.84;;;2.13;84.43
4024;BME280;2026;51.002;13.668;2023-02-15T18:33:35;99987.31;;;1.94;85.10
4024;BME280;2026;51.002;13.668;2023-02-15T18:38:40;99997.41;;;1.98;84.80
4024;BME280;2026;51.002;13.668;2023-02-15T18:43:43;99998.75;;;1.92;84.27
4024;BME280;2026;51.002;13.668;2023-02-15T18:48:46;99998.59;;;1.84;84.76
4024;BME280;2026;51.002;13.668;2023-02-15T18:53:51;100004.00;;;1.80;85.40
4024;BME280;2026;51.002;13.668;2023-02-15T18:58:55;100003.16;;;1.70;85.42
4024;BME280;2026;51.002;13.668;2023-02-15T19:03:58;100004.50;;;1.64;84.74
4024;BME280;2026;51.002;13.668;2023-02-15T19:09:02;100005.63;;;1.40;85.62
4024;BME280;2026;51.002;13.668;2023-02-15T19:14:07;99986.97;;;1.37;85.79
4024;BME280;2026;51.002;13.668;2023-02-15T19:19:13;99996.84;;;1.32;86.25
4024;BME280;2026;51.002;13.668;2023-02-15T19:24:19;99994.22;;;1.22;85.94
4024;BME280;2026;51.002;13.668;2023-02-15T19:29:27;99992.59;;;1.21;86.38
4024;BME280;2026;51.002;13.668;2023-02-15T19:34:31;99976.72;;;1.04;87.35
4024;BME280;2026;51.002;13.668;2023-02-15T19:39:37;99981.19;;;1.02;87.35
4024;BME280;2026;51.002;13.668;2023-02-15T19:44:41;99974.13;;;1.04;86.16
4024;BME280;2026;51.002;13.668;2023-02-15T19:49:44;99971.00;;;0.79;87.61
4024;BME280;2026;51.002;13.668;2023-02-15T19:54:49;99962.31;;;0.48;89.16
4024;BME280;2026;51.002;13.668;2023-02-15T19:59:52;99960.00;;;0.66;87.77
4024;BME280;2026;51.002;13.668;2023-02-15T20:04:55;99962.66;;;0.54;88.77
4024;BME280;2026;51.002;13.668;2023-02-15T20:09:59;99953.47;;;0.62;87.89
4024;BME280;2026;51.002;13.668;2023-02-15T20:15:16;99941.19;;;0.54;88.13
4024;BME280;2026;51.002;13.668;2023-02-15T20:20:20;99935.91;;;0.55;87.94
4024;BME280;2026;51.002;13.668;2023-02-15T20:25:26;99931.91;;;0.51;88.41
4024;BME280;2026;51.002;13.668;2023-02-15T20:30:30;99936.03;;;0.54;87.74
4024;BME280;2026;51.002;13.668;2023-02-15T20:35:33;99932.41;;;0.45;87.87
4024;BME280;2026;51.002;13.668;2023-02-15T20:40:38;99935.63;;;0.37;87.60
4024;BME280;2026;51.002;13.668;2023-02-15T20:46:03;99919.13;;;0.28;88.57
4024;BME280;2026;51.002;13.668;2023-02-15T20:51:14;99928.47;;;0.29;88.81
4024;BME280;2026;51.002;13.668;2023-02-15T20:56:21;99928.53;;;0.18;89.06
4024;BME280;2026;51.002;13.668;2023-02-15T21:01:24;99918.00;;;0.10;88.71
4024;BME280;2026;51.002;13.668;2023-02-15T21:06:27;99927.84;;;0.16;88.36
4024;BME280;2026;51.002;13.668;2023-02-15T21:11:32;99923.69;;;-0.08;89.40
4024;BME280;2026;51.002;13.668;2023-02-15T21:16:34;99923.81;;;-0.09;89.25
4024;BME280;2026;51.002;13.668;2023-02-15T21:21:37;99914.31;;;-0.09;89.26
4024;BME280;2026;51.002;13.668;2023-02-15T21:26:44;99915.44;;;0.10;88.81
4024;BME280;2026;51.002;13.668;2023-02-15T21:31:47;99903.59;;;0.07;88.96
4024;BME280;2026;51.002;13.668;2023-02-15T21:36:50;99906.53;;;0.02;88.46
4024;BME280;2026;51.002;13.668;2023-02-15T21:41:55;99900.34;;;0.05;88.39
4024;BME280;2026;51.002;13.668;2023-02-15T21:47:18;99903.09;;;-0.19;88.78
4024;BME280;2026;51.002;13.668;2023-02-15T21:52:39;99903.06;;;-0.08;88.63
4024;BME280;2026;51.002;13.668;2023-02-15T21:57:43;99893.34;;;-0.16;88.51
4024;BME280;2026;51.002;13.668;2023-02-15T22:02:48;99895.06;;;-0.49;89.18
4024;BME280;2026;51.002;13.668;2023-02-15T22:07:53;99892.47;;;-0.49;90.59
4024;BME280;2026;51.002;13.668;2023-02-15T22:12:58;99880.63;;;-0.29;89.64
4024;BME280;2026;51.002;13.668;2023-02-15T22:18:03;99895.38;;;-0.31;89.28
4024;BME280;2026;51.002;13.668;2023-02-15T22:23:05;99893.50;;;-0.29;88.60
4024;BME280;2026;51.002;13.668;2023-02-15T22:28:12;99901.22;;;-0.29;88.94
4024;BME280;2026;51.002;13.668;2023-02-15T22:33:21;99896.69;;;-0.36;89.87
4024;BME280;2026;51.002;13.668;2023-02-15T22:38:25;99892.34;;;-0.36;88.55
4024;BME280;2026;51.002;13.668;2023-02-15T22:43:34;99889.28;;;-0.41;89.64
4024;BME280;2026;51.002;13.668;2023-02-15T22:48:38;99899.13;;;-0.35;89.27
4024;BME280;2026;51.002;13.668;2023-02-15T22:53:41;99897.50;;;-0.36;88.90
4024;BME280;2026;51.002;13.668;2023-02-15T22:58:46;99897.59;;;-0.38;88.79
4024;BME280;2026;51.002;13.668;2023-02-15T23:03:51;99899.59;;;-0.41;88.19
4024;BME280;2026;51.002;13.668;2023-02-15T23:08:54;99907.47;;;-0.43;88.08
4024;BME280;2026;51.002;13.668;2023-02-15T23:13:59;99899.59;;;-0.41;88.02
4024;BME280;2026;51.002;13.668;2023-02-15T23:19:05;99912.75;;;-0.56;88.69
4024;BME280;2026;51.002;13.668;2023-02-15T23:24:14;99907.22;;;-0.62;89.47
4024;BME280;2026;51.002;13.668;2023-02-15T23:29:22;99900.56;;;-0.65;89.52
4024;BME280;2026;51.002;13.668;2023-02-15T23:34:27;99903.94;;;-0.76;89.81
4024;BME280;2026;51.002;13.668;2023-02-15T23:39:30;99903.72;;;-1.07;91.39
4024;BME280;2026;51.002;13.668;2023-02-15T23:44:52;99905.97;;;-0.80;90.27
4024;BME280;2026;51.002;13.668;2023-02-15T23:49:56;99892.38;;;-0.82;90.11
4024;BME280;2026;51.002;13.668;2023-02-15T23:54:58;99894.50;;;-0.87;90.79
